KLSE/LSE METAR and TAF weather

Enter ICAO airport designator
Station Type Date Time Source
KLSE METAR 2020/01/22 15:18 UTC NOAA

KLSE 221518Z 17014KT 10SM BKN022 OVC042 M01/M06 A3001 RMK AO2 T10111056


Station Type Date Time Source
KLSE Decoded METAR 2020/01/22 15:18 UTC NOAA

LA CROSSE MUNICIPAL AIRPORT , WI, United States (KLSE) 43-53N 091-15W 200M
Jan 22, 2020 - 10:18 AM EST / 2020.01.22 1518 UTC
Wind: from the S (170 degrees) at 16 MPH (14 KT):0
Visibility: 10 mile(s):0
Sky conditions: overcast
Temperature: 30.0 F (-1.1 C)
Windchill: 19 F (-7 C):1
Dew Point: 21.9 F (-5.6 C)
Relative Humidity: 71%
Pressure (altimeter): 30.01 in. Hg (1016 hPa)
ob: KLSE 221518Z 17014KT 10SM BKN022 OVC042 M01/M06 A3001 RMK AO2 T10111056
cycle: 15

Station Type Date Time Source
KLSE TAF 2020/01/22 14:54 UTC NOAA

TAF
AMD KLSE 221351Z 2214/2312 18013G20KT 4SM -SN OVC035
TEMPO 2214/2216 2SM -SN OVC020
FM221800 18010G20KT 4SM -SN OVC009
FM230200 16008KT 4SM -SN OVC007

Example: see airport list